Time;durP1;ratioP1;P1;durP2;ratioP2;P2;SDS_P1;SDS_P2;PMS_P1;PMS_P2;Temp;Humidity;BMP_temperature;BMP_pressure;BME280_temperature;BME280_humidity;BME280_pressure;Samples;Min_cycle;Max_cycle;Signal;HPM_P1;HPM_P2
2022/06/05 00:00:29;;;;;;;6.82;6.15;;;;;;;;;;5048877;28;20213;-77
2022/06/05 00:03:15;;;;;;;6.95;6.35;;;;;;;;;;5044317;28;20238;-75
2022/06/05 00:05:48;;;;;;;6.25;5.63;;;;;;;;;;5050329;28;20339;-76
2022/06/05 00:08:29;;;;;;;7.75;6.30;;;;;;;;;;5046376;28;20226;-77
2022/06/05 00:10:58;;;;;;;7.20;6.05;;;;;;;;;;5045986;28;20285;-78
2022/06/05 00:13:31;;;;;;;6.68;6.07;;;;;;;;;;5050265;28;20202;-77
2022/06/05 00:15:59;;;;;;;7.15;6.53;;;;;;;;;;5043062;28;20229;-77
2022/06/05 00:18:27;;;;;;;8.50;7.03;;;;;;;;;;5051369;28;20214;-77
2022/06/05 00:20:54;;;;;;;7.72;7.13;;;;;;;;;;5041477;28;20210;-77
2022/06/05 00:23:21;;;;;;;8.45;7.60;;;;;;;;;;5048407;28;20237;-77
2022/06/05 00:26:07;;;;;;;9.20;7.88;;;;;;;;;;5048176;28;20226;-77
2022/06/05 00:28:52;;;;;;;7.63;6.88;;;;;;;;;;5050891;28;20202;-77
2022/06/05 00:31:24;;;;;;;7.82;7.10;;;;;;;;;;5050169;28;20195;-78
2022/06/05 00:33:52;;;;;;;7.82;7.20;;;;;;;;;;5051437;28;20202;-77
2022/06/05 00:36:51;;;;;;;7.45;6.85;;;;;;;;;;5047304;28;20284;-77
2022/06/05 00:39:23;;;;;;;8.05;7.35;;;;;;;;;;5013624;28;20289;-79
2022/06/05 00:41:54;;;;;;;7.57;6.88;;;;;;;;;;5045196;28;20214;-78
2022/06/05 00:44:33;;;;;;;8.13;7.43;;;;;;;;;;5053831;28;20748;-77
2022/06/05 00:47:01;;;;;;;8.32;7.50;;;;;;;;;;5046930;28;20238;-77
2022/06/05 00:49:49;;;;;;;8.43;7.53;;;;;;;;;;5045784;28;20199;-76
2022/06/05 00:52:16;;;;;;;8.32;7.63;;;;;;;;;;5048088;28;20639;-77
2022/06/05 00:54:43;;;;;;;8.38;7.47;;;;;;;;;;5051549;28;20257;-77
2022/06/05 00:57:12;;;;;;;8.55;7.75;;;;;;;;;;5051896;28;20256;-77
2022/06/05 00:59:41;;;;;;;8.55;7.60;;;;;;;;;;5053366;28;20229;-77
2022/06/05 01:02:09;;;;;;;8.40;7.57;;;;;;;;;;5050173;28;20237;-78
2022/06/05 01:04:38;;;;;;;8.57;7.82;;;;;;;;;;5047776;28;20272;-77
2022/06/05 01:07:05;;;;;;;8.68;7.85;;;;;;;;;;5051221;28;20336;-76
2022/06/05 01:09:33;;;;;;;10.30;9.30;;;;;;;;;;5052828;28;20838;-77
2022/06/05 01:12:12;;;;;;;9.93;8.93;;;;;;;;;;5047984;28;20723;-78
2022/06/05 01:14:39;;;;;;;9.75;8.73;;;;;;;;;;5046302;28;20226;-76
2022/06/05 01:17:17;;;;;;;9.15;8.35;;;;;;;;;;5046857;28;20250;-76
2022/06/05 01:20:04;;;;;;;9.68;8.88;;;;;;;;;;5047586;28;20643;-76
2022/06/05 01:22:48;;;;;;;9.73;8.93;;;;;;;;;;5048763;28;20214;-77
2022/06/05 01:25:23;;;;;;;11.18;10.18;;;;;;;;;;5047541;28;20281;-77
2022/06/05 01:27:53;;;;;;;10.38;9.48;;;;;;;;;;5044100;28;21485;-77
2022/06/05 01:30:23;;;;;;;10.75;9.65;;;;;;;;;;5047742;28;20694;-76
2022/06/05 01:32:50;;;;;;;10.00;9.18;;;;;;;;;;5048421;28;20237;-76
2022/06/05 01:35:22;;;;;;;10.70;9.60;;;;;;;;;;5043506;28;20207;-77
2022/06/05 01:37:52;;;;;;;9.95;9.10;;;;;;;;;;5046057;28;20222;-79
2022/06/05 01:40:21;;;;;;;10.20;9.30;;;;;;;;;;5034820;28;20354;-77
2022/06/05 01:43:09;;;;;;;9.75;8.95;;;;;;;;;;5040608;28;20206;-76
2022/06/05 01:45:36;;;;;;;9.77;8.82;;;;;;;;;;5058159;28;20305;-77
2022/06/05 01:48:05;;;;;;;9.50;8.60;;;;;;;;;;5042042;28;20723;-77
2022/06/05 01:50:52;;;;;;;9.85;9.05;;;;;;;;;;5047381;28;20213;-75
2022/06/05 01:53:25;;;;;;;9.75;8.73;;;;;;;;;;5046985;28;20236;-77
2022/06/05 01:55:55;;;;;;;10.73;9.60;;;;;;;;;;5047101;28;20337;-77
2022/06/05 01:58:28;;;;;;;9.85;8.93;;;;;;;;;;5051147;28;20653;-77
2022/06/05 02:00:57;;;;;;;11.25;10.15;;;;;;;;;;5045217;28;20233;-76
2022/06/05 02:03:36;;;;;;;10.57;9.50;;;;;;;;;;5047901;28;20713;-76
2022/06/05 02:06:22;;;;;;;10.95;9.77;;;;;;;;;;5043873;28;20313;-76
2022/06/05 02:08:52;;;;;;;10.63;9.57;;;;;;;;;;5045183;28;20725;-77
2022/06/05 02:11:21;;;;;;;10.93;9.93;;;;;;;;;;5042873;28;20198;-76
2022/06/05 02:13:54;;;;;;;10.18;9.18;;;;;;;;;;5048030;28;20285;-76
2022/06/05 02:16:21;;;;;;;10.02;9.02;;;;;;;;;;5050282;28;20347;-77
2022/06/05 02:18:50;;;;;;;9.15;8.35;;;;;;;;;;5050138;28;20206;-77
2022/06/05 02:21:18;;;;;;;10.93;9.68;;;;;;;;;;5051689;28;20234;-77
2022/06/05 02:23:46;;;;;;;10.68;9.63;;;;;;;;;;5046501;28;20815;-76
2022/06/05 02:26:13;;;;;;;10.35;9.38;;;;;;;;;;5050531;28;20750;-75
2022/06/05 02:28:41;;;;;;;10.38;9.10;;;;;;;;;;5043627;28;20207;-77
2022/06/05 02:31:14;;;;;;;10.00;9.20;;;;;;;;;;5048083;28;20255;-77
2022/06/05 02:33:41;;;;;;;10.82;9.82;;;;;;;;;;5045145;28;20709;-77
2022/06/05 02:36:26;;;;;;;10.38;9.32;;;;;;;;;;5046091;28;20229;-77
2022/06/05 02:39:08;;;;;;;10.27;9.32;;;;;;;;;;5052880;28;20300;-77
2022/06/05 02:41:39;;;;;;;10.63;9.63;;;;;;;;;;5048864;28;20706;-77
2022/06/05 02:44:34;;;;;;;11.48;10.38;;;;;;;;;;5045317;28;20249;-79
2022/06/05 02:47:16;;;;;;;10.55;9.65;;;;;;;;;;5014001;28;20708;-77
2022/06/05 02:49:56;;;;;;;10.55;9.55;;;;;;;;;;5048366;28;20228;-77
2022/06/05 02:52:24;;;;;;;10.80;9.80;;;;;;;;;;5045420;28;20251;-77
2022/06/05 02:54:56;;;;;;;11.63;10.38;;;;;;;;;;5041629;28;20269;-76
2022/06/05 02:57:24;;;;;;;12.45;10.88;;;;;;;;;;5043242;28;20268;-78
2022/06/05 02:59:51;;;;;;;11.43;10.25;;;;;;;;;;5040214;28;20283;-77
2022/06/05 03:05:05;;;;;;;10.88;9.88;;;;;;;;;;5043018;28;20240;-78
2022/06/05 03:07:32;;;;;;;13.57;11.25;;;;;;;;;;5041365;28;20308;-77
2022/06/05 03:10:00;;;;;;;11.70;10.70;;;;;;;;;;5039177;28;20233;-78
2022/06/05 03:12:27;;;;;;;12.48;11.25;;;;;;;;;;5044200;28;21250;-76
2022/06/05 03:14:56;;;;;;;11.73;10.52;;;;;;;;;;5045589;28;20194;-77
2022/06/05 03:17:24;;;;;;;11.95;10.75;;;;;;;;;;5044910;28;20336;-79
2022/06/05 03:19:51;;;;;;;11.55;10.35;;;;;;;;;;5043773;28;20297;-75
2022/06/05 03:22:18;;;;;;;12.15;10.88;;;;;;;;;;5046402;28;20293;-77
2022/06/05 03:24:45;;;;;;;12.35;11.02;;;;;;;;;;5041148;28;20226;-76
2022/06/05 03:27:12;;;;;;;11.50;10.50;;;;;;;;;;5044063;28;20260;-75
2022/06/05 03:29:40;;;;;;;11.10;10.10;;;;;;;;;;5050979;28;20204;-77
2022/06/05 03:32:07;;;;;;;10.88;9.80;;;;;;;;;;5044544;28;20230;-78
2022/06/05 03:34:34;;;;;;;11.10;10.00;;;;;;;;;;5047312;28;20233;-78
2022/06/05 03:37:03;;;;;;;10.95;9.95;;;;;;;;;;5048899;28;20584;-77
2022/06/05 03:39:31;;;;;;;11.43;9.90;;;;;;;;;;5047705;28;20279;-77
2022/06/05 03:41:59;;;;;;;9.85;8.98;;;;;;;;;;5054976;28;20257;-77
2022/06/05 03:44:27;;;;;;;12.05;10.00;;;;;;;;;;5047286;28;20268;-76
2022/06/05 03:46:54;;;;;;;9.93;8.93;;;;;;;;;;5052089;28;20332;-77
2022/06/05 03:49:22;;;;;;;11.00;9.93;;;;;;;;;;5047103;28;20613;-76
2022/06/05 03:51:49;;;;;;;11.15;10.05;;;;;;;;;;5044094;28;20634;-76
2022/06/05 03:54:16;;;;;;;10.93;9.93;;;;;;;;;;5048520;28;20237;-78
2022/06/05 03:56:44;;;;;;;13.00;10.85;;;;;;;;;;5041411;28;20250;-76
2022/06/05 03:59:12;;;;;;;10.60;9.60;;;;;;;;;;5049789;28;20202;-76
2022/06/05 04:01:39;;;;;;;10.07;9.18;;;;;;;;;;5048572;28;20214;-80
2022/06/05 04:04:06;;;;;;;9.50;8.70;;;;;;;;;;5049225;28;20210;-78
2022/06/05 04:06:33;;;;;;;9.95;9.13;;;;;;;;;;5046350;28;20226;-79
2022/06/05 04:09:03;;;;;;;9.95;9.05;;;;;;;;;;5055179;28;20221;-78
2022/06/05 04:11:31;;;;;;;9.82;8.85;;;;;;;;;;5050130;28;20655;-78
2022/06/05 04:13:59;;;;;;;9.15;8.35;;;;;;;;;;5048990;28;20241;-78
2022/06/05 04:16:27;;;;;;;8.70;7.90;;;;;;;;;;5051503;28;20237;-78
2022/06/05 04:18:55;;;;;;;9.25;8.38;;;;;;;;;;5046780;28;20233;-77
2022/06/05 04:21:23;;;;;;;8.85;8.05;;;;;;;;;;5049017;28;20655;-79
2022/06/05 04:23:51;;;;;;;10.30;8.45;;;;;;;;;;5046545;28;20237;-78
2022/06/05 04:26:20;;;;;;;11.43;8.50;;;;;;;;;;5048374;28;20313;-78
2022/06/05 04:28:47;;;;;;;8.95;8.18;;;;;;;;;;5050229;28;20243;-78
2022/06/05 04:31:30;;;;;;;11.13;9.52;;;;;;;;;;5047783;28;20233;-78
2022/06/05 04:33:58;;;;;;;9.75;8.77;;;;;;;;;;5042823;28;20213;-78
2022/06/05 04:36:26;;;;;;;9.00;8.20;;;;;;;;;;5051268;28;20249;-80
2022/06/05 04:38:54;;;;;;;9.13;8.23;;;;;;;;;;5053319;28;20213;-79
2022/06/05 04:41:21;;;;;;;9.65;8.70;;;;;;;;;;5052597;28;20248;-78
2022/06/05 04:43:49;;;;;;;9.30;8.40;;;;;;;;;;5051865;28;20642;-79
2022/06/05 04:46:18;;;;;;;9.02;8.23;;;;;;;;;;5046239;28;20316;-76
2022/06/05 04:48:45;;;;;;;9.93;8.70;;;;;;;;;;5047569;28;20221;-77
2022/06/05 04:51:13;;;;;;;9.15;8.27;;;;;;;;;;5051089;28;20224;-77
2022/06/05 04:53:41;;;;;;;9.45;8.60;;;;;;;;;;5047343;28;20716;-79
2022/06/05 04:56:11;;;;;;;9.50;8.60;;;;;;;;;;5047102;28;20233;-77
2022/06/05 04:58:39;;;;;;;9.18;8.15;;;;;;;;;;5037853;28;20728;-79
2022/06/05 05:01:13;;;;;;;9.68;8.88;;;;;;;;;;5042948;28;20233;-77
2022/06/05 05:03:40;;;;;;;8.65;7.75;;;;;;;;;;5050457;28;20248;-80
2022/06/05 05:06:09;;;;;;;7.93;7.32;;;;;;;;;;5052509;28;20597;-78
2022/06/05 05:08:37;;;;;;;7.53;6.93;;;;;;;;;;5051938;28;20214;-80
2022/06/05 05:11:04;;;;;;;7.88;7.07;;;;;;;;;;5039538;28;20237;-79
2022/06/05 05:13:32;;;;;;;7.10;6.50;;;;;;;;;;5035193;28;20211;-78
2022/06/05 05:16:00;;;;;;;10.93;9.75;;;;;;;;;;5035875;28;20796;-78
2022/06/05 05:18:27;;;;;;;12.80;11.60;;;;;;;;;;5032454;28;20293;-77
2022/06/05 05:21:03;;;;;;;14.75;13.43;;;;;;;;;;5027644;28;20257;-78
2022/06/05 05:23:31;;;;;;;18.05;13.70;;;;;;;;;;5036100;28;20202;-79
2022/06/05 05:26:05;;;;;;;24.50;17.27;;;;;;;;;;5036049;28;20657;-77
2022/06/05 05:28:33;;;;;;;25.67;17.35;;;;;;;;;;5032706;28;20229;-75
2022/06/05 05:31:00;;;;;;;23.77;19.48;;;;;;;;;;5026758;28;20297;-78
2022/06/05 05:33:27;;;;;;;19.67;17.67;;;;;;;;;;5031628;28;20206;-78
2022/06/05 05:35:55;;;;;;;24.35;19.33;;;;;;;;;;5042378;28;20222;-77
2022/06/05 05:38:22;;;;;;;21.70;18.73;;;;;;;;;;5033311;28;20256;-75
2022/06/05 05:43:35;;;;;;;20.77;16.85;;;;;;;;;;5040071;28;20305;-78
2022/06/05 05:46:03;;;;;;;12.48;11.27;;;;;;;;;;5035731;28;20234;-77
2022/06/05 05:48:31;;;;;;;13.57;10.98;;;;;;;;;;5033747;28;20230;-75
2022/06/05 05:50:58;;;;;;;12.52;11.38;;;;;;;;;;5034635;28;20234;-78
2022/06/05 05:53:25;;;;;;;12.23;9.40;;;;;;;;;;5039846;28;20246;-75
2022/06/05 05:55:53;;;;;;;6.13;5.53;;;;;;;;;;5042368;28;20361;-77
2022/06/05 05:58:20;;;;;;;4.55;3.83;;;;;;;;;;5040764;28;20210;-77
2022/06/05 06:00:48;;;;;;;4.95;3.15;;;;;;;;;;5035839;28;20264;-78
2022/06/05 06:03:15;;;;;;;3.50;2.40;;;;;;;;;;5038070;28;20233;-78
2022/06/05 06:05:42;;;;;;;4.38;2.60;;;;;;;;;;5035861;28;20308;-77
2022/06/05 06:08:09;;;;;;;2.50;1.70;;;;;;;;;;5035973;28;20762;-77
2022/06/05 06:10:37;;;;;;;1.80;1.60;;;;;;;;;;5045778;28;20271;-79
2022/06/05 06:13:04;;;;;;;1.92;1.70;;;;;;;;;;5044329;28;20664;-79
2022/06/05 06:15:31;;;;;;;3.95;1.38;;;;;;;;;;5041194;28;20300;-78
2022/06/05 06:17:58;;;;;;;1.77;1.23;;;;;;;;;;5037910;28;20199;-79
2022/06/05 06:20:26;;;;;;;1.45;1.02;;;;;;;;;;5038636;28;20206;-79
2022/06/05 06:22:53;;;;;;;4.38;0.98;;;;;;;;;;5038990;28;20202;-76
2022/06/05 06:25:20;;;;;;;1.70;1.02;;;;;;;;;;5032637;28;20194;-77
2022/06/05 06:27:47;;;;;;;1.73;1.20;;;;;;;;;;5043969;28;20309;-78
2022/06/05 06:30:15;;;;;;;1.67;1.30;;;;;;;;;;5031172;28;21102;-77
2022/06/05 06:32:42;;;;;;;1.98;1.45;;;;;;;;;;5033377;28;20244;-76
2022/06/05 06:35:09;;;;;;;1.00;1.00;;;;;;;;;;5031283;28;20305;-76
2022/06/05 06:37:37;;;;;;;1.70;1.40;;;;;;;;;;5033167;28;20230;-75
2022/06/05 06:40:05;;;;;;;1.55;1.45;;;;;;;;;;5032382;28;20322;-78
2022/06/05 06:42:32;;;;;;;1.85;1.40;;;;;;;;;;5029328;28;20301;-76
2022/06/05 06:44:59;;;;;;;2.80;1.50;;;;;;;;;;5035533;28;20300;-76
2022/06/05 06:47:26;;;;;;;1.60;1.40;;;;;;;;;;5026674;28;20238;-77
2022/06/05 06:49:53;;;;;;;2.10;1.35;;;;;;;;;;5016604;28;20300;-76
2022/06/05 06:52:21;;;;;;;1.33;1.30;;;;;;;;;;5021716;28;20214;-77
2022/06/05 06:54:50;;;;;;;2.60;1.73;;;;;;;;;;5026727;28;21830;-76
2022/06/05 06:57:18;;;;;;;1.43;1.33;;;;;;;;;;5014256;28;20284;-76
2022/06/05 06:59:45;;;;;;;2.15;1.50;;;;;;;;;;5020151;28;20272;-77
2022/06/05 07:02:12;;;;;;;1.63;1.27;;;;;;;;;;5024242;28;20302;-75
2022/06/05 07:04:40;;;;;;;1.70;1.30;;;;;;;;;;5012998;28;20303;-76
2022/06/05 07:07:07;;;;;;;2.70;1.30;;;;;;;;;;5013067;28;20360;-75
2022/06/05 07:09:34;;;;;;;1.13;1.08;;;;;;;;;;5016538;28;20225;-75
2022/06/05 07:12:02;;;;;;;1.55;1.20;;;;;;;;;;5014571;28;20265;-77
2022/06/05 07:14:29;;;;;;;3.22;1.10;;;;;;;;;;5019824;28;20324;-77
2022/06/05 07:16:57;;;;;;;2.22;1.50;;;;;;;;;;5037731;28;20222;-77
2022/06/05 07:19:24;;;;;;;2.78;1.25;;;;;;;;;;5020124;28;20202;-75
2022/06/05 07:21:51;;;;;;;2.17;1.33;;;;;;;;;;5011780;28;20210;-77
2022/06/05 07:24:19;;;;;;;2.33;1.40;;;;;;;;;;5022227;28;20217;-76
2022/06/05 07:26:46;;;;;;;2.28;1.10;;;;;;;;;;5021623;28;20327;-77
2022/06/05 07:29:13;;;;;;;1.05;0.98;;;;;;;;;;5019162;28;20717;-77
2022/06/05 07:31:41;;;;;;;1.95;1.13;;;;;;;;;;5028398;28;20581;-78
2022/06/05 07:34:09;;;;;;;2.25;1.02;;;;;;;;;;5012972;28;20202;-78
2022/06/05 07:36:36;;;;;;;2.83;1.40;;;;;;;;;;5005413;28;20284;-77
2022/06/05 07:39:04;;;;;;;2.63;1.35;;;;;;;;;;5031822;28;20214;-76
2022/06/05 07:41:36;;;;;;;1.88;1.25;;;;;;;;;;5028709;28;20211;-77
2022/06/05 07:44:04;;;;;;;1.30;1.20;;;;;;;;;;5047325;28;20230;-76
2022/06/05 07:46:33;;;;;;;2.28;1.30;;;;;;;;;;5047684;28;20228;-76
2022/06/05 07:49:00;;;;;;;1.25;1.15;;;;;;;;;;5025233;28;20225;-78
2022/06/05 07:54:28;;;;;;;2.13;1.20;;;;;;;;;;5049234;28;20213;-77
2022/06/05 07:56:57;;;;;;;1.65;1.30;;;;;;;;;;5042585;28;20272;-77
2022/06/05 07:59:24;;;;;;;1.58;1.20;;;;;;;;;;5041570;28;20202;-77
2022/06/05 08:01:59;;;;;;;1.63;1.40;;;;;;;;;;5032016;28;20198;-79
2022/06/05 08:04:27;;;;;;;3.70;1.40;;;;;;;;;;5032243;28;20210;-78
2022/06/05 08:06:57;;;;;;;2.58;1.27;;;;;;;;;;5038957;28;20229;-76
2022/06/05 08:09:24;;;;;;;1.85;1.48;;;;;;;;;;5035900;28;21214;-77
2022/06/05 08:11:52;;;;;;;2.20;1.30;;;;;;;;;;5024559;28;20361;-77
2022/06/05 08:14:22;;;;;;;1.30;1.20;;;;;;;;;;5031434;28;20226;-77
2022/06/05 08:16:49;;;;;;;1.50;1.40;;;;;;;;;;5026539;28;20664;-76
2022/06/05 08:19:19;;;;;;;3.20;1.40;;;;;;;;;;5028549;28;20221;-76
2022/06/05 08:24:29;;;;;;;3.70;2.10;;;;;;;;;;1464813;22;20579;-65
2022/06/05 08:27:05;;;;;;;4.70;1.90;;;;;;;;;;5061596;28;20209;-65
2022/06/05 08:29:33;;;;;;;2.42;1.85;;;;;;;;;;5064706;28;20344;-65
2022/06/05 08:32:01;;;;;;;3.10;2.40;;;;;;;;;;5078545;28;20306;-64
2022/06/05 08:34:28;;;;;;;3.53;2.10;;;;;;;;;;5097618;28;20204;-65
2022/06/05 08:42:39;;;;;;;3.17;1.90;;;;;;;;;;5096546;28;21124;-63
2022/06/05 08:45:10;;;;;;;4.45;2.40;;;;;;;;;;5078832;28;20671;-65
2022/06/05 08:47:58;;;;;;;3.75;2.40;;;;;;;;;;5076588;28;20239;-64
2022/06/05 08:50:35;;;;;;;3.60;2.33;;;;;;;;;;5095900;28;20256;-64
2022/06/05 08:53:13;;;;;;;3.92;2.65;;;;;;;;;;5084112;28;20212;-65
2022/06/05 08:55:42;;;;;;;3.17;2.85;;;;;;;;;;5081646;28;20936;-64
2022/06/05 08:58:28;;;;;;;3.67;2.95;;;;;;;;;;5098102;27;20204;-64
2022/06/05 09:01:00;;;;;;;6.63;3.83;;;;;;;;;;5103174;28;20255;-64
2022/06/05 09:03:31;;;;;;;3.97;3.42;;;;;;;;;;5102575;27;20206;-63
2022/06/05 09:06:20;;;;;;;4.70;3.60;;;;;;;;;;5078222;28;21116;-64
2022/06/05 09:08:51;;;;;;;6.30;3.50;;;;;;;;;;5079228;27;20224;-64
2022/06/05 09:11:34;;;;;;;3.47;3.17;;;;;;;;;;5081152;28;20315;-64
2022/06/05 09:14:02;;;;;;;3.65;2.88;;;;;;;;;;5074622;28;20205;-64
2022/06/05 09:16:31;;;;;;;3.65;2.65;;;;;;;;;;5072416;28;20208;-63
2022/06/05 09:18:59;;;;;;;3.80;2.45;;;;;;;;;;5071414;27;20320;-64
2022/06/05 09:21:30;;;;;;;4.50;2.70;;;;;;;;;;5087858;27;20224;-63
2022/06/05 09:24:19;;;;;;;4.10;2.40;;;;;;;;;;5075870;28;20743;-64
2022/06/05 09:27:02;;;;;;;3.75;2.22;;;;;;;;;;5089571;28;20308;-64
2022/06/05 09:29:33;;;;;;;4.72;2.85;;;;;;;;;;5077459;28;20223;-65
2022/06/05 09:32:18;;;;;;;4.88;3.28;;;;;;;;;;5087837;27;20227;-64
2022/06/05 09:38:02;;;;;;;4.10;3.22;;;;;;;;;;5078518;28;20215;-62
2022/06/05 09:40:37;;;;;;;19.05;5.15;;;;;;;;;;5089005;28;20223;-62
2022/06/05 09:43:04;;;;;;;9.02;5.30;;;;;;;;;;5094348;28;20283;-62
2022/06/05 09:45:38;;;;;;;10.57;8.32;;;;;;;;;;5094796;28;20230;-63
2022/06/05 09:48:14;;;;;;;36.10;26.08;;;;;;;;;;5077138;28;20207;-65
2022/06/05 09:50:42;;;;;;;25.27;17.38;;;;;;;;;;5093160;28;20730;-65
2022/06/05 09:53:19;;;;;;;14.65;8.88;;;;;;;;;;5081237;28;20226;-65
2022/06/05 09:56:25;;;;;;;12.77;8.20;;;;;;;;;;5097380;27;20202;-66
2022/06/05 09:59:11;;;;;;;14.75;10.85;;;;;;;;;;5018798;28;20314;-66
2022/06/05 10:02:09;;;;;;;7.22;6.15;;;;;;;;;;5013707;28;20254;-65
2022/06/05 10:04:38;;;;;;;4.43;3.70;;;;;;;;;;5052554;28;20204;-63
2022/06/05 10:07:28;;;;;;;8.20;3.33;;;;;;;;;;5080672;28;20284;-63
2022/06/05 10:09:57;;;;;;;3.42;3.20;;;;;;;;;;5072496;28;20317;-63
2022/06/05 10:12:29;;;;;;;6.60;3.80;;;;;;;;;;5078820;28;20204;-63
2022/06/05 10:15:02;;;;;;;4.22;3.78;;;;;;;;;;5097811;27;20589;-63
2022/06/05 10:17:45;;;;;;;6.50;3.80;;;;;;;;;;5086178;28;20295;-64
2022/06/05 10:20:13;;;;;;;6.18;3.72;;;;;;;;;;5099305;28;20306;-64
2022/06/05 10:22:40;;;;;;;5.20;3.78;;;;;;;;;;5075017;28;20898;-63
2022/06/05 10:25:30;;;;;;;7.32;4.00;;;;;;;;;;5093713;28;20250;-63
2022/06/05 10:28:11;;;;;;;12.65;5.30;;;;;;;;;;5067506;28;20208;-66
2022/06/05 10:30:54;;;;;;;10.10;5.45;;;;;;;;;;5094444;28;20230;-62
2022/06/05 10:33:23;;;;;;;8.35;5.82;;;;;;;;;;5076477;28;20744;-63
2022/06/05 10:35:55;;;;;;;7.20;5.60;;;;;;;;;;5073226;28;20200;-63
2022/06/05 10:38:35;;;;;;;11.35;6.60;;;;;;;;;;5081024;28;20214;-64
2022/06/05 10:41:06;;;;;;;9.93;7.20;;;;;;;;;;5086388;27;20223;-64
2022/06/05 10:43:34;;;;;;;9.70;7.63;;;;;;;;;;5094196;27;20200;-64
2022/06/05 10:46:05;;;;;;;9.88;8.20;;;;;;;;;;5086636;28;20294;-65
2022/06/05 10:48:39;;;;;;;7.53;6.80;;;;;;;;;;5087375;28;20226;-64
2022/06/05 10:51:16;;;;;;;6.28;5.72;;;;;;;;;;5064537;28;21396;-63
2022/06/05 10:53:46;;;;;;;8.70;6.43;;;;;;;;;;5086120;28;20207;-63
2022/06/05 10:56:18;;;;;;;7.22;5.22;;;;;;;;;;5083308;28;20219;-63
2022/06/05 10:59:07;;;;;;;7.60;4.38;;;;;;;;;;5077101;28;20207;-63
2022/06/05 11:01:53;;;;;;;8.93;3.72;;;;;;;;;;5070452;28;20738;-64
2022/06/05 11:04:25;;;;;;;5.75;4.10;;;;;;;;;;5063299;28;20486;-64
2022/06/05 11:07:11;;;;;;;5.65;4.13;;;;;;;;;;5081070;28;20208;-64
2022/06/05 11:09:50;;;;;;;6.40;4.07;;;;;;;;;;5065781;28;20219;-64
2022/06/05 11:15:24;;;;;;;8.07;5.20;;;;;;;;;;5088027;28;20212;-65
2022/06/05 11:18:09;;;;;;;5.35;4.55;;;;;;;;;;5092281;28;20324;-67
2022/06/05 11:20:37;;;;;;;5.28;3.72;;;;;;;;;;5083520;28;20239;-62
2022/06/05 11:23:07;;;;;;;5.43;3.88;;;;;;;;;;5072574;28;20216;-65
2022/06/05 11:25:52;;;;;;;12.38;4.05;;;;;;;;;;5069648;28;20216;-63
2022/06/05 11:28:27;;;;;;;4.30;3.90;;;;;;;;;;5070229;28;20562;-63
2022/06/05 11:31:08;;;;;;;6.75;3.63;;;;;;;;;;5079662;28;20234;-63
2022/06/05 11:33:45;;;;;;;4.70;3.78;;;;;;;;;;5075299;28;20200;-61
2022/06/05 11:36:19;;;;;;;8.23;4.03;;;;;;;;;;5069654;28;20215;-65
2022/06/05 11:39:05;;;;;;;5.07;3.80;;;;;;;;;;5080143;28;20200;-65
2022/06/05 11:41:38;;;;;;;6.10;3.25;;;;;;;;;;5076018;28;20825;-65
2022/06/05 11:44:09;;;;;;;5.00;3.03;;;;;;;;;;5064359;28;20681;-64
2022/06/05 11:46:48;;;;;;;5.72;3.13;;;;;;;;;;5084370;28;20220;-65
2022/06/05 11:49:34;;;;;;;7.28;2.95;;;;;;;;;;5073944;28;20338;-66
2022/06/05 11:52:23;;;;;;;5.40;2.78;;;;;;;;;;5086676;28;20248;-65
2022/06/05 11:54:57;;;;;;;3.30;2.88;;;;;;;;;;5069602;28;20201;-65
2022/06/05 11:57:25;;;;;;;6.30;2.42;;;;;;;;;;5075189;28;20347;-63
2022/06/05 12:00:06;;;;;;;4.40;2.33;;;;;;;;;;5080935;28;20212;-64
2022/06/05 12:02:36;;;;;;;4.82;2.53;;;;;;;;;;5096419;27;20220;-64
2022/06/05 12:05:13;;;;;;;3.80;2.08;;;;;;;;;;5074428;28;20307;-65
2022/06/05 12:07:41;;;;;;;2.35;2.15;;;;;;;;;;5099778;28;20218;-65
2022/06/05 12:10:17;;;;;;;4.13;2.22;;;;;;;;;;5095716;27;20300;-64
2022/06/05 12:12:49;;;;;;;4.97;2.22;;;;;;;;;;5098868;28;20219;-64
2022/06/05 12:15:16;;;;;;;6.25;2.45;;;;;;;;;;5081155;28;22920;-64
2022/06/05 12:17:47;;;;;;;3.38;2.10;;;;;;;;;;5081631;28;20196;-64
2022/06/05 12:20:23;;;;;;;3.65;2.25;;;;;;;;;;5094188;27;20200;-64
2022/06/05 12:22:53;;;;;;;2.63;2.20;;;;;;;;;;5094975;27;20614;-63
2022/06/05 12:25:53;;;;;;;4.43;2.28;;;;;;;;;;5088254;28;20675;-62
2022/06/05 12:28:32;;;;;;;4.88;2.40;;;;;;;;;;5043444;27;20335;-64
2022/06/05 12:31:07;;;;;;;3.60;2.00;;;;;;;;;;5069257;28;20320;-63
2022/06/05 12:33:58;;;;;;;5.80;2.63;;;;;;;;;;5079935;28;20203;-62
2022/06/05 12:36:34;;;;;;;4.93;2.10;;;;;;;;;;5083911;28;20237;-63
2022/06/05 12:39:06;;;;;;;4.00;1.92;;;;;;;;;;5086286;27;20203;-62
2022/06/05 12:41:37;;;;;;;5.45;2.05;;;;;;;;;;5086851;27;20302;-63
2022/06/05 12:44:17;;;;;;;4.20;2.15;;;;;;;;;;5072840;28;21195;-63
2022/06/05 12:46:59;;;;;;;2.83;1.80;;;;;;;;;;5075634;28;20208;-64
2022/06/05 12:49:42;;;;;;;2.72;2.03;;;;;;;;;;5078018;28;20204;-64
2022/06/05 12:52:10;;;;;;;5.28;2.28;;;;;;;;;;5072373;28;20220;-64
2022/06/05 12:54:57;;;;;;;2.70;2.50;;;;;;;;;;5083428;28;20238;-65
2022/06/05 12:57:39;;;;;;;4.57;2.78;;;;;;;;;;5091390;28;20649;-65
2022/06/05 13:00:15;;;;;;;3.92;2.50;;;;;;;;;;5081380;28;20644;-67
2022/06/05 13:02:50;;;;;;;3.72;2.00;;;;;;;;;;5067569;28;20296;-64
2022/06/05 13:05:47;;;;;;;5.05;2.58;;;;;;;;;;5092929;27;20223;-65
2022/06/05 13:08:16;;;;;;;2.90;2.42;;;;;;;;;;5067701;28;20208;-65
2022/06/05 13:10:51;;;;;;;4.68;2.30;;;;;;;;;;5077296;28;20228;-65
2022/06/05 13:13:23;;;;;;;4.80;2.70;;;;;;;;;;5084198;27;21152;-65
2022/06/05 13:15:57;;;;;;;3.47;2.80;;;;;;;;;;5062813;28;20224;-63
2022/06/05 13:18:26;;;;;;;4.20;3.00;;;;;;;;;;5089386;28;20207;-66
2022/06/05 13:21:13;;;;;;;3.53;2.42;;;;;;;;;;5077478;28;20231;-64
2022/06/05 13:23:50;;;;;;;2.22;2.03;;;;;;;;;;5069075;28;20318;-65
2022/06/05 13:26:24;;;;;;;2.40;2.20;;;;;;;;;;5058208;28;20216;-64
2022/06/05 13:29:11;;;;;;;3.47;1.70;;;;;;;;;;5082470;27;20207;-64
2022/06/05 13:31:57;;;;;;;3.00;2.07;;;;;;;;;;5091462;27;20449;-63
2022/06/05 13:34:57;;;;;;;2.35;2.15;;;;;;;;;;5095938;27;20232;-63
2022/06/05 13:37:44;;;;;;;2.95;2.00;;;;;;;;;;5085526;28;20188;-64
2022/06/05 13:40:16;;;;;;;2.10;1.90;;;;;;;;;;5095270;28;20944;-64
2022/06/05 13:42:49;;;;;;;1.95;1.85;;;;;;;;;;5072709;28;20209;-66
2022/06/05 13:45:29;;;;;;;2.80;1.70;;;;;;;;;;5081395;28;20239;-65
2022/06/05 13:48:19;;;;;;;2.75;2.10;;;;;;;;;;5095082;27;20258;-63
2022/06/05 13:50:48;;;;;;;2.10;1.90;;;;;;;;;;5097766;27;20613;-64
2022/06/05 13:53:21;;;;;;;2.85;2.00;;;;;;;;;;5067398;28;20215;-64
2022/06/05 13:56:04;;;;;;;1.92;1.70;;;;;;;;;;5078528;28;20611;-63
2022/06/05 13:58:32;;;;;;;2.58;1.60;;;;;;;;;;5088077;27;20212;-63
2022/06/05 14:01:14;;;;;;;2.15;1.95;;;;;;;;;;5076685;28;20231;-63
2022/06/05 14:03:50;;;;;;;4.20;1.90;;;;;;;;;;5090814;28;20241;-64
2022/06/05 14:06:28;;;;;;;2.17;2.00;;;;;;;;;;5070432;28;20207;-64
2022/06/05 14:09:01;;;;;;;4.68;2.13;;;;;;;;;;5072510;28;20340;-64
2022/06/05 14:11:34;;;;;;;3.03;2.10;;;;;;;;;;5091256;28;20220;-64
2022/06/05 14:14:05;;;;;;;2.95;2.42;;;;;;;;;;5083891;27;20240;-64
2022/06/05 14:16:37;;;;;;;4.57;2.45;;;;;;;;;;5090212;27;20231;-64
2022/06/05 14:19:06;;;;;;;4.35;2.63;;;;;;;;;;5074447;28;20208;-65
2022/06/05 14:21:36;;;;;;;4.78;2.92;;;;;;;;;;5074556;28;20656;-64
2022/06/05 14:24:28;;;;;;;4.05;3.28;;;;;;;;;;5091051;27;20228;-64
2022/06/05 14:27:00;;;;;;;4.63;3.15;;;;;;;;;;5067666;28;20666;-65
2022/06/05 14:29:47;;;;;;;4.85;2.95;;;;;;;;;;5087766;28;20258;-65
2022/06/05 14:32:17;;;;;;;4.35;3.13;;;;;;;;;;5068513;27;20228;-64
2022/06/05 14:34:46;;;;;;;4.47;3.70;;;;;;;;;;5069283;28;20564;-64
2022/06/05 14:37:27;;;;;;;4.82;4.03;;;;;;;;;;5065228;28;20742;-63
2022/06/05 14:39:59;;;;;;;4.18;3.85;;;;;;;;;;5087376;28;20204;-64
2022/06/05 14:42:31;;;;;;;5.85;4.00;;;;;;;;;;5072441;28;20204;-63
2022/06/05 14:45:04;;;;;;;120.13;106.95;;;;;;;;;;5078925;28;20324;-64
2022/06/05 14:47:48;;;;;;;24.52;21.50;;;;;;;;;;5092905;28;20665;-63
2022/06/05 14:50:20;;;;;;;7.15;6.00;;;;;;;;;;5075208;28;20228;-64
2022/06/05 14:52:53;;;;;;;4.40;4.00;;;;;;;;;;5078782;28;20208;-64
2022/06/05 14:58:25;;;;;;;6.10;3.88;;;;;;;;;;5072017;28;20834;-64
2022/06/05 15:00:59;;;;;;;5.78;4.15;;;;;;;;;;5085855;28;20235;-65
2022/06/05 15:03:48;;;;;;;4.60;4.20;;;;;;;;;;5089301;28;20212;-65
2022/06/05 15:06:20;;;;;;;4.75;4.15;;;;;;;;;;5079797;28;20623;-64
2022/06/05 15:09:04;;;;;;;4.88;3.97;;;;;;;;;;5075842;28;20204;-65
2022/06/05 15:11:35;;;;;;;5.60;4.50;;;;;;;;;;5075227;28;20866;-65
2022/06/05 15:14:12;;;;;;;5.60;4.22;;;;;;;;;;5085915;28;20265;-66
2022/06/05 15:16:39;;;;;;;4.85;4.45;;;;;;;;;;5078796;28;20204;-64
2022/06/05 15:19:14;;;;;;;4.80;3.90;;;;;;;;;;5085437;28;20219;-65
2022/06/05 15:21:50;;;;;;;5.65;5.00;;;;;;;;;;5098656;28;21027;-64
2022/06/05 15:24:20;;;;;;;4.40;4.00;;;;;;;;;;5090520;28;20208;-64
2022/06/05 15:27:11;;;;;;;4.53;3.75;;;;;;;;;;5099373;28;20235;-64
2022/06/05 15:29:45;;;;;;;5.55;3.88;;;;;;;;;;5092320;28;20228;-64
2022/06/05 15:32:20;;;;;;;6.85;3.85;;;;;;;;;;5088122;28;20224;-64
2022/06/05 15:34:55;;;;;;;4.25;3.40;;;;;;;;;;5105007;28;20295;-64
2022/06/05 15:37:37;;;;;;;5.93;3.70;;;;;;;;;;5110590;27;20200;-65